sensor_id;sensor_type;location;lat;lon;timestamp;pressure;altitude;pressure_sealevel;temperature;humidity
72959;BME280;60008;50.826;6.896;2022-08-04T00:00:09;100622.34;;;23.45;60.94
72959;BME280;60008;50.826;6.896;2022-08-04T00:02:58;100617.66;;;23.40;60.23
72959;BME280;60008;50.826;6.896;2022-08-04T00:05:28;100619.63;;;23.28;60.02
72959;BME280;60008;50.826;6.896;2022-08-04T00:08:18;100623.22;;;23.17;60.31
72959;BME280;60008;50.826;6.896;2022-08-04T00:10:53;100616.50;;;23.20;60.43
72959;BME280;60008;50.826;6.896;2022-08-04T00:13:26;100619.97;;;23.15;60.64
72959;BME280;60008;50.826;6.896;2022-08-04T00:15:57;100618.88;;;23.16;62.12
72959;BME280;60008;50.826;6.896;2022-08-04T00:18:28;100613.47;;;23.16;62.70
72959;BME280;60008;50.826;6.896;2022-08-04T00:21:03;100613.03;;;23.07;62.51
72959;BME280;60008;50.826;6.896;2022-08-04T00:23:33;100615.19;;;23.05;62.17
72959;BME280;60008;50.826;6.896;2022-08-04T00:26:20;100610.25;;;23.02;63.25
72959;BME280;60008;50.826;6.896;2022-08-04T00:28:47;100602.41;;;23.01;63.14
72959;BME280;60008;50.826;6.896;2022-08-04T00:31:15;100609.34;;;22.97;63.53
72959;BME280;60008;50.826;6.896;2022-08-04T00:33:44;100601.66;;;22.89;63.09
72959;BME280;60008;50.826;6.896;2022-08-04T00:36:11;100596.66;;;22.81;62.90
72959;BME280;60008;50.826;6.896;2022-08-04T00:38:42;100601.00;;;22.82;64.14
72959;BME280;60008;50.826;6.896;2022-08-04T00:41:36;100590.25;;;22.70;63.85
72959;BME280;60008;50.826;6.896;2022-08-04T00:47:43;100592.47;;;22.73;64.69
72959;BME280;60008;50.826;6.896;2022-08-04T00:53:13;100592.19;;;22.58;65.87
72959;BME280;60008;50.826;6.896;2022-08-04T00:59:03;100594.75;;;22.36;65.45
72959;BME280;60008;50.826;6.896;2022-08-04T01:01:46;100604.94;;;22.34;65.13
72959;BME280;60008;50.826;6.896;2022-08-04T01:07:09;100603.22;;;22.28;65.30
72959;BME280;60008;50.826;6.896;2022-08-04T01:10:02;100606.84;;;22.34;65.59
72959;BME280;60008;50.826;6.896;2022-08-04T01:15:20;100604.19;;;22.22;66.00
72959;BME280;60008;50.826;6.896;2022-08-04T01:20:32;100594.69;;;22.20;65.24
72959;BME280;60008;50.826;6.896;2022-08-04T01:29:12;100609.03;;;22.09;66.13
72959;BME280;60008;50.826;6.896;2022-08-04T01:32:00;100599.53;;;22.06;66.58
72959;BME280;60008;50.826;6.896;2022-08-04T01:34:39;100601.06;;;22.02;65.77
72959;BME280;60008;50.826;6.896;2022-08-04T01:37:11;100594.75;;;21.97;67.21
72959;BME280;60008;50.826;6.896;2022-08-04T01:40:09;100597.91;;;21.93;66.31
72959;BME280;60008;50.826;6.896;2022-08-04T01:42:40;100595.47;;;21.92;67.41
72959;BME280;60008;50.826;6.896;2022-08-04T01:45:11;100599.69;;;21.88;67.04
72959;BME280;60008;50.826;6.896;2022-08-04T01:47:57;100598.97;;;21.81;66.91
72959;BME280;60008;50.826;6.896;2022-08-04T01:50:24;100598.28;;;21.51;67.07
72959;BME280;60008;50.826;6.896;2022-08-04T01:52:54;100598.41;;;21.56;67.69
72959;BME280;60008;50.826;6.896;2022-08-04T01:55:21;100597.00;;;21.42;67.15
72959;BME280;60008;50.826;6.896;2022-08-04T01:57:51;100588.13;;;21.41;67.69
72959;BME280;60008;50.826;6.896;2022-08-04T02:00:21;100604.41;;;21.46;67.66
72959;BME280;60008;50.826;6.896;2022-08-04T02:02:49;100593.50;;;21.41;65.94
72959;BME280;60008;50.826;6.896;2022-08-04T02:05:20;100589.63;;;21.25;66.85
72959;BME280;60008;50.826;6.896;2022-08-04T02:08:12;100594.06;;;21.31;66.30
72959;BME280;60008;50.826;6.896;2022-08-04T02:10:54;100591.28;;;21.38;67.21
72959;BME280;60008;50.826;6.896;2022-08-04T02:13:53;100588.69;;;21.43;67.18
72959;BME280;60008;50.826;6.896;2022-08-04T02:16:36;100589.88;;;21.35;66.80
72959;BME280;60008;50.826;6.896;2022-08-04T02:22:02;100585.88;;;21.26;67.20
72959;BME280;60008;50.826;6.896;2022-08-04T02:24:32;100586.56;;;21.10;67.95
72959;BME280;60008;50.826;6.896;2022-08-04T02:27:02;100578.56;;;20.92;68.52
72959;BME280;60008;50.826;6.896;2022-08-04T02:29:39;100582.31;;;21.03;68.60
72959;BME280;60008;50.826;6.896;2022-08-04T02:32:11;100577.06;;;21.08;68.92
72959;BME280;60008;50.826;6.896;2022-08-04T02:37:31;100571.88;;;20.95;68.55
72959;BME280;60008;50.826;6.896;2022-08-04T02:40:01;100572.47;;;20.97;69.88
72959;BME280;60008;50.826;6.896;2022-08-04T02:42:29;100572.56;;;20.90;69.85
72959;BME280;60008;50.826;6.896;2022-08-04T02:44:58;100568.56;;;20.93;69.47
72959;BME280;60008;50.826;6.896;2022-08-04T02:47:27;100573.63;;;20.89;69.11
72959;BME280;60008;50.826;6.896;2022-08-04T02:50:17;100567.88;;;20.86;69.17
72959;BME280;60008;50.826;6.896;2022-08-04T02:52:56;100565.19;;;20.86;69.91
72959;BME280;60008;50.826;6.896;2022-08-04T02:55:24;100560.94;;;20.78;70.77
72959;BME280;60008;50.826;6.896;2022-08-04T02:57:53;100558.97;;;20.85;69.95
72959;BME280;60008;50.826;6.896;2022-08-04T03:00:21;100562.47;;;20.86;70.15
72959;BME280;60008;50.826;6.896;2022-08-04T03:11:31;100563.16;;;20.69;70.80
72959;BME280;60008;50.826;6.896;2022-08-04T03:41:46;100557.44;;;20.18;71.63
72959;BME280;60008;50.826;6.896;2022-08-04T03:47:49;100554.97;;;20.16;72.18
72959;BME280;60008;50.826;6.896;2022-08-04T03:58:59;100551.94;;;20.13;71.52
72959;BME280;60008;50.826;6.896;2022-08-04T04:13:36;100559.44;;;20.23;71.88
72959;BME280;60008;50.826;6.896;2022-08-04T04:19:22;100564.19;;;20.27;72.00
72959;BME280;60008;50.826;6.896;2022-08-04T04:30:00;100554.41;;;20.33;71.76
72959;BME280;60008;50.826;6.896;2022-08-04T04:35:32;100561.53;;;20.39;71.73
72959;BME280;60008;50.826;6.896;2022-08-04T04:44:46;100569.06;;;20.48;71.63
72959;BME280;60008;50.826;6.896;2022-08-04T04:46:42;100567.78;;;20.51;70.69
72959;BME280;60008;50.826;6.896;2022-08-04T04:52:06;100563.03;;;20.64;70.32
72959;BME280;60008;50.826;6.896;2022-08-04T04:54:50;100566.56;;;20.76;69.63
72959;BME280;60008;50.826;6.896;2022-08-04T04:57:22;100561.44;;;20.87;69.40
72959;BME280;60008;50.826;6.896;2022-08-04T05:00:10;100561.06;;;20.83;70.25
72959;BME280;60008;50.826;6.896;2022-08-04T05:05:55;100564.63;;;20.95;69.04
72959;BME280;60008;50.826;6.896;2022-08-04T05:13:49;100566.47;;;21.06;68.53
72959;BME280;60008;50.826;6.896;2022-08-04T05:16:45;100572.94;;;21.05;68.58
72959;BME280;60008;50.826;6.896;2022-08-04T05:22:38;100584.69;;;21.11;68.31
72959;BME280;60008;50.826;6.896;2022-08-04T05:28:05;100581.31;;;21.27;67.79
72959;BME280;60008;50.826;6.896;2022-08-04T05:30:40;100578.16;;;21.30;67.59
72959;BME280;60008;50.826;6.896;2022-08-04T05:33:42;100580.84;;;21.30;67.18
72959;BME280;60008;50.826;6.896;2022-08-04T05:36:15;100586.47;;;21.40;67.28
72959;BME280;60008;50.826;6.896;2022-08-04T05:39:03;100583.31;;;21.43;67.47
72959;BME280;60008;50.826;6.896;2022-08-04T05:41:33;100587.16;;;21.47;67.77
72959;BME280;60008;50.826;6.896;2022-08-04T05:44:17;100589.16;;;21.40;67.22
72959;BME280;60008;50.826;6.896;2022-08-04T05:46:47;100587.50;;;21.39;66.56
72959;BME280;60008;50.826;6.896;2022-08-04T05:49:25;100580.13;;;21.46;67.07
72959;BME280;60008;50.826;6.896;2022-08-04T05:51:55;100579.88;;;21.48;67.21
72959;BME280;60008;50.826;6.896;2022-08-04T05:54:23;100574.13;;;21.56;66.89
72959;BME280;60008;50.826;6.896;2022-08-04T05:56:52;100580.00;;;21.53;67.39
72959;BME280;60008;50.826;6.896;2022-08-04T05:59:19;100579.41;;;21.62;66.41
72959;BME280;60008;50.826;6.896;2022-08-04T06:01:47;100571.19;;;21.69;66.26
72959;BME280;60008;50.826;6.896;2022-08-04T06:04:25;100570.47;;;21.73;66.97
72959;BME280;60008;50.826;6.896;2022-08-04T06:06:53;100573.97;;;21.85;65.66
72959;BME280;60008;50.826;6.896;2022-08-04T06:09:20;100574.69;;;21.92;65.62
72959;BME280;60008;50.826;6.896;2022-08-04T06:11:48;100565.28;;;22.07;65.59
72959;BME280;60008;50.826;6.896;2022-08-04T06:14:34;100565.09;;;22.25;65.50
72959;BME280;60008;50.826;6.896;2022-08-04T06:17:05;100558.16;;;22.45;65.03
72959;BME280;60008;50.826;6.896;2022-08-04T06:19:53;100563.84;;;22.61;64.36
72959;BME280;60008;50.826;6.896;2022-08-04T06:22:42;100566.34;;;22.79;63.93
72959;BME280;60008;50.826;6.896;2022-08-04T06:25:14;100566.50;;;22.89;63.91
72959;BME280;60008;50.826;6.896;2022-08-04T06:27:42;100564.06;;;22.87;64.06
72959;BME280;60008;50.826;6.896;2022-08-04T06:30:09;100563.75;;;23.00;64.04
72959;BME280;60008;50.826;6.896;2022-08-04T06:32:43;100566.84;;;22.92;62.95
72959;BME280;60008;50.826;6.896;2022-08-04T06:35:15;100563.81;;;22.89;62.98
72959;BME280;60008;50.826;6.896;2022-08-04T06:37:46;100573.56;;;23.06;62.46
72959;BME280;60008;50.826;6.896;2022-08-04T06:43:06;100570.94;;;23.28;62.42
72959;BME280;60008;50.826;6.896;2022-08-04T06:45:34;100579.78;;;23.40;61.81
72959;BME280;60008;50.826;6.896;2022-08-04T06:48:04;100572.72;;;23.56;61.59
72959;BME280;60008;50.826;6.896;2022-08-04T06:50:34;100579.13;;;23.50;61.21
72959;BME280;60008;50.826;6.896;2022-08-04T06:53:21;100568.88;;;23.74;61.28
72959;BME280;60008;50.826;6.896;2022-08-04T06:55:48;100576.34;;;24.05;59.25
72959;BME280;60008;50.826;6.896;2022-08-04T06:58:16;100571.41;;;24.02;58.89
72959;BME280;60008;50.826;6.896;2022-08-04T07:00:45;100569.56;;;24.24;59.10
72959;BME280;60008;50.826;6.896;2022-08-04T07:03:14;100578.00;;;24.33;58.80
72959;BME280;60008;50.826;6.896;2022-08-04T07:05:42;100574.66;;;24.47;58.14
72959;BME280;60008;50.826;6.896;2022-08-04T07:08:09;100577.09;;;24.49;58.51
72959;BME280;60008;50.826;6.896;2022-08-04T07:10:37;100573.53;;;24.70;58.27
72959;BME280;60008;50.826;6.896;2022-08-04T07:13:04;100575.97;;;24.71;57.30
72959;BME280;60008;50.826;6.896;2022-08-04T07:15:34;100575.84;;;24.83;58.13
72959;BME280;60008;50.826;6.896;2022-08-04T07:18:01;100575.38;;;25.28;56.16
72959;BME280;60008;50.826;6.896;2022-08-04T07:20:31;100572.38;;;25.24;55.51
72959;BME280;60008;50.826;6.896;2022-08-04T07:23:05;100578.19;;;25.43;54.42
72959;BME280;60008;50.826;6.896;2022-08-04T07:25:34;100574.38;;;25.44;56.26
72959;BME280;60008;50.826;6.896;2022-08-04T07:28:24;100577.19;;;25.49;54.42
72959;BME280;60008;50.826;6.896;2022-08-04T07:30:52;100579.66;;;25.61;54.89
72959;BME280;60008;50.826;6.896;2022-08-04T07:33:20;100578.91;;;25.65;54.51
72959;BME280;60008;50.826;6.896;2022-08-04T07:35:53;100573.88;;;25.94;54.74
72959;BME280;60008;50.826;6.896;2022-08-04T07:38:41;100569.56;;;25.98;54.42
72959;BME280;60008;50.826;6.896;2022-08-04T07:41:21;100577.00;;;26.28;53.35
72959;BME280;60008;50.826;6.896;2022-08-04T07:44:04;100563.69;;;26.36;54.25
72959;BME280;60008;50.826;6.896;2022-08-04T07:46:32;100567.81;;;26.39;52.88
72959;BME280;60008;50.826;6.896;2022-08-04T07:49:02;100568.63;;;26.65;52.68
72959;BME280;60008;50.826;6.896;2022-08-04T07:51:30;100573.25;;;26.54;50.98
72959;BME280;60008;50.826;6.896;2022-08-04T07:53:58;100567.63;;;26.96;51.05
72959;BME280;60008;50.826;6.896;2022-08-04T07:56:26;100571.34;;;27.60;49.25
72959;BME280;60008;50.826;6.896;2022-08-04T07:58:53;100569.75;;;29.35;45.43
72959;BME280;60008;50.826;6.896;2022-08-04T08:01:21;100570.03;;;29.57;43.61
72959;BME280;60008;50.826;6.896;2022-08-04T08:03:50;100570.59;;;30.81;40.34
72959;BME280;60008;50.826;6.896;2022-08-04T08:06:18;100569.66;;;31.91;37.58
72959;BME280;60008;50.826;6.896;2022-08-04T08:09:01;100576.75;;;32.69;37.84
72959;BME280;60008;50.826;6.896;2022-08-04T08:11:47;100576.91;;;34.43;33.61
72959;BME280;60008;50.826;6.896;2022-08-04T08:14:35;100566.09;;;34.73;32.87
72959;BME280;60008;50.826;6.896;2022-08-04T08:17:03;100559.25;;;35.59;31.28
72959;BME280;60008;50.826;6.896;2022-08-04T08:19:31;100562.22;;;36.54;30.49
72959;BME280;60008;50.826;6.896;2022-08-04T08:21:59;100566.19;;;36.45;30.47
72959;BME280;60008;50.826;6.896;2022-08-04T08:24:28;100558.66;;;35.37;30.57
72959;BME280;60008;50.826;6.896;2022-08-04T08:26:57;100558.47;;;34.78;31.95
72959;BME280;60008;50.826;6.896;2022-08-04T08:29:26;100562.97;;;34.40;32.74
72959;BME280;60008;50.826;6.896;2022-08-04T08:31:55;100565.06;;;34.17;33.23
72959;BME280;60008;50.826;6.896;2022-08-04T08:34:27;100557.84;;;37.19;28.38
72959;BME280;60008;50.826;6.896;2022-08-04T08:37:12;100559.00;;;38.79;27.51
72959;BME280;60008;50.826;6.896;2022-08-04T08:45:33;100557.44;;;39.68;25.24
72959;BME280;60008;50.826;6.896;2022-08-04T08:53:20;100547.47;;;38.77;25.54
72959;BME280;60008;50.826;6.896;2022-08-04T08:56:17;100546.50;;;39.00;25.36
72959;BME280;60008;50.826;6.896;2022-08-04T09:10:43;100525.25;;;34.49;31.75
72959;BME280;60008;50.826;6.896;2022-08-04T09:13:18;100524.13;;;34.67;32.48
72959;BME280;60008;50.826;6.896;2022-08-04T09:18:36;100528.97;;;34.19;33.01
72959;BME280;60008;50.826;6.896;2022-08-04T09:21:17;100535.97;;;35.69;29.56
72959;BME280;60008;50.826;6.896;2022-08-04T09:27:43;100541.56;;;35.90;30.41
72959;BME280;60008;50.826;6.896;2022-08-04T09:30:08;100535.75;;;37.31;27.72
72959;BME280;60008;50.826;6.896;2022-08-04T09:35:32;100532.66;;;35.08;30.67
72959;BME280;60008;50.826;6.896;2022-08-04T09:38:19;100540.88;;;36.22;30.60
72959;BME280;60008;50.826;6.896;2022-08-04T09:47:04;100536.16;;;38.97;25.43
72959;BME280;60008;50.826;6.896;2022-08-04T09:52:35;100540.44;;;35.44;28.83
72959;BME280;60008;50.826;6.896;2022-08-04T10:00:15;100539.91;;;37.13;26.46
72959;BME280;60008;50.826;6.896;2022-08-04T10:05:20;100544.91;;;35.66;28.40
72959;BME280;60008;50.826;6.896;2022-08-04T10:11:15;100535.59;;;34.09;28.27
72959;BME280;60008;50.826;6.896;2022-08-04T10:13:53;100534.50;;;34.61;29.22
72959;BME280;60008;50.826;6.896;2022-08-04T10:19:23;100538.78;;;33.94;30.38
72959;BME280;60008;50.826;6.896;2022-08-04T10:28:04;100531.06;;;34.30;29.99
72959;BME280;60008;50.826;6.896;2022-08-04T10:30:35;100536.41;;;34.87;29.63
72959;BME280;60008;50.826;6.896;2022-08-04T10:33:22;100539.41;;;35.95;25.60
72959;BME280;60008;50.826;6.896;2022-08-04T10:35:54;100535.19;;;35.68;25.37
72959;BME280;60008;50.826;6.896;2022-08-04T10:44:22;100539.72;;;40.84;18.92
72959;BME280;60008;50.826;6.896;2022-08-04T10:47:03;100543.94;;;40.55;19.25
72959;BME280;60008;50.826;6.896;2022-08-04T10:49:43;100543.63;;;39.56;19.06
72959;BME280;60008;50.826;6.896;2022-08-04T10:52:47;100549.53;;;39.39;20.04
72959;BME280;60008;50.826;6.896;2022-08-04T10:55:30;100549.47;;;38.64;20.93
72959;BME280;60008;50.826;6.896;2022-08-04T10:58:21;100549.97;;;39.25;19.73
72959;BME280;60008;50.826;6.896;2022-08-04T11:01:18;100546.31;;;39.37;19.55
72959;BME280;60008;50.826;6.896;2022-08-04T11:04:25;100541.28;;;40.62;18.28
72959;BME280;60008;50.826;6.896;2022-08-04T11:06:57;100549.69;;;41.49;16.46
72959;BME280;60008;50.826;6.896;2022-08-04T11:09:27;100542.19;;;40.89;18.03
72959;BME280;60008;50.826;6.896;2022-08-04T11:12:04;100539.31;;;36.86;23.94
72959;BME280;60008;50.826;6.896;2022-08-04T11:14:43;100538.28;;;35.20;25.81
72959;BME280;60008;50.826;6.896;2022-08-04T11:17:21;100543.72;;;34.31;27.49
72959;BME280;60008;50.826;6.896;2022-08-04T11:22:59;100551.19;;;33.74;29.92
72959;BME280;60008;50.826;6.896;2022-08-04T11:31:35;100554.63;;;33.49;30.71
72959;BME280;60008;50.826;6.896;2022-08-04T11:34:18;100562.00;;;33.31;31.11
72959;BME280;60008;50.826;6.896;2022-08-04T11:42:55;100568.25;;;33.23;32.55
72959;BME280;60008;50.826;6.896;2022-08-04T11:45:47;100568.88;;;33.20;31.86
72959;BME280;60008;50.826;6.896;2022-08-04T11:48:28;100556.84;;;33.08;32.09
72959;BME280;60008;50.826;6.896;2022-08-04T11:50:56;100565.66;;;33.27;31.70
72959;BME280;60008;50.826;6.896;2022-08-04T11:53:25;100561.56;;;33.46;32.49
72959;BME280;60008;50.826;6.896;2022-08-04T11:56:04;100549.56;;;33.65;31.94
72959;BME280;60008;50.826;6.896;2022-08-04T11:58:37;100542.44;;;33.64;31.73
72959;BME280;60008;50.826;6.896;2022-08-04T12:01:20;100541.50;;;33.77;30.95
72959;BME280;60008;50.826;6.896;2022-08-04T12:13:27;100568.75;;;33.03;32.84
72959;BME280;60008;50.826;6.896;2022-08-04T12:16:13;100575.34;;;33.24;33.48
72959;BME280;60008;50.826;6.896;2022-08-04T12:21:25;100582.38;;;33.08;33.05
72959;BME280;60008;50.826;6.896;2022-08-04T12:23:57;100584.75;;;33.01;33.96
72959;BME280;60008;50.826;6.896;2022-08-04T12:26:28;100589.88;;;32.94;33.29
72959;BME280;60008;50.826;6.896;2022-08-04T12:29:00;100594.22;;;32.23;35.02
72959;BME280;60008;50.826;6.896;2022-08-04T12:31:54;100586.72;;;31.74;36.89
72959;BME280;60008;50.826;6.896;2022-08-04T12:37:44;100566.66;;;31.19;35.79
72959;BME280;60008;50.826;6.896;2022-08-04T12:40:24;100569.38;;;31.06;37.10
72959;BME280;60008;50.826;6.896;2022-08-04T12:43:08;100566.13;;;31.17;36.02
72959;BME280;60008;50.826;6.896;2022-08-04T12:45:42;100573.50;;;31.36;34.70
72959;BME280;60008;50.826;6.896;2022-08-04T12:48:15;100564.28;;;31.59;34.73
72959;BME280;60008;50.826;6.896;2022-08-04T12:50:52;100570.22;;;32.29;34.32
72959;BME280;60008;50.826;6.896;2022-08-04T12:53:22;100575.13;;;32.18;34.43
72959;BME280;60008;50.826;6.896;2022-08-04T12:55:59;100574.84;;;31.93;34.62
72959;BME280;60008;50.826;6.896;2022-08-04T12:58:31;100579.03;;;31.63;35.09
72959;BME280;60008;50.826;6.896;2022-08-04T13:01:29;100588.03;;;31.17;36.04
72959;BME280;60008;50.826;6.896;2022-08-04T13:06:43;100580.94;;;31.90;36.21
72959;BME280;60008;50.826;6.896;2022-08-04T13:09:19;100582.72;;;32.35;34.35
72959;BME280;60008;50.826;6.896;2022-08-04T13:11:59;100590.28;;;31.89;36.19
72959;BME280;60008;50.826;6.896;2022-08-04T13:14:35;100582.88;;;31.75;35.97
72959;BME280;60008;50.826;6.896;2022-08-04T13:17:03;100585.06;;;32.42;36.83
72959;BME280;60008;50.826;6.896;2022-08-04T13:19:35;100575.19;;;32.40;36.21
72959;BME280;60008;50.826;6.896;2022-08-04T13:22:07;100582.50;;;32.09;37.37
72959;BME280;60008;50.826;6.896;2022-08-04T13:24:35;100580.03;;;32.08;36.71
72959;BME280;60008;50.826;6.896;2022-08-04T13:27:23;100565.50;;;31.66;36.60
72959;BME280;60008;50.826;6.896;2022-08-04T13:29:54;100574.66;;;31.89;37.67
72959;BME280;60008;50.826;6.896;2022-08-04T13:32:29;100566.31;;;32.08;32.99
72959;BME280;60008;50.826;6.896;2022-08-04T13:35:00;100567.72;;;32.19;34.01
72959;BME280;60008;50.826;6.896;2022-08-04T13:37:35;100575.69;;;31.93;33.33
72959;BME280;60008;50.826;6.896;2022-08-04T13:40:04;100574.56;;;32.08;33.78
72959;BME280;60008;50.826;6.896;2022-08-04T13:42:33;100568.16;;;32.12;35.56
72959;BME280;60008;50.826;6.896;2022-08-04T13:45:02;100577.00;;;32.09;35.16
72959;BME280;60008;50.826;6.896;2022-08-04T13:47:33;100571.63;;;32.04;35.13
72959;BME280;60008;50.826;6.896;2022-08-04T13:50:15;100568.94;;;32.13;35.06
72959;BME280;60008;50.826;6.896;2022-08-04T13:52:43;100576.81;;;32.06;35.93
72959;BME280;60008;50.826;6.896;2022-08-04T13:57:56;100572.84;;;31.85;36.49
72959;BME280;60008;50.826;6.896;2022-08-04T14:00:25;100570.38;;;31.56;36.60
72959;BME280;60008;50.826;6.896;2022-08-04T14:03:05;100573.56;;;31.76;37.05
72959;BME280;60008;50.826;6.896;2022-08-04T14:06:15;100569.75;;;32.27;36.99
72959;BME280;60008;50.826;6.896;2022-08-04T14:08:49;100572.72;;;32.17;36.49
72959;BME280;60008;50.826;6.896;2022-08-04T14:11:19;100570.47;;;32.19;36.95
72959;BME280;60008;50.826;6.896;2022-08-04T14:14:30;100563.78;;;32.11;36.99
72959;BME280;60008;50.826;6.896;2022-08-04T14:17:12;100562.47;;;31.68;36.77
72959;BME280;60008;50.826;6.896;2022-08-04T14:25:13;100553.66;;;31.85;37.84
72959;BME280;60008;50.826;6.896;2022-08-04T14:30:26;100559.72;;;32.09;34.77
72959;BME280;60008;50.826;6.896;2022-08-04T14:33:07;100558.00;;;31.72;35.78
72959;BME280;60008;50.826;6.896;2022-08-04T14:35:58;100557.50;;;31.83;36.24
72959;BME280;60008;50.826;6.896;2022-08-04T14:38:53;100558.50;;;31.88;36.95
72959;BME280;60008;50.826;6.896;2022-08-04T14:41:28;100558.09;;;31.67;36.01
72959;BME280;60008;50.826;6.896;2022-08-04T14:44:02;100555.31;;;31.40;38.09
72959;BME280;60008;50.826;6.896;2022-08-04T14:46:29;100553.16;;;31.23;38.96
72959;BME280;60008;50.826;6.896;2022-08-04T14:49:07;100552.28;;;31.28;37.46
72959;BME280;60008;50.826;6.896;2022-08-04T14:51:58;100551.56;;;31.36;38.02
72959;BME280;60008;50.826;6.896;2022-08-04T14:54:31;100546.59;;;31.24;37.33
72959;BME280;60008;50.826;6.896;2022-08-04T14:57:04;100550.59;;;30.99;38.37
72959;BME280;60008;50.826;6.896;2022-08-04T14:59:45;100552.91;;;30.92;38.03
72959;BME280;60008;50.826;6.896;2022-08-04T15:02:28;100559.41;;;30.78;38.99
72959;BME280;60008;50.826;6.896;2022-08-04T15:04:56;100552.09;;;30.73;38.25
72959;BME280;60008;50.826;6.896;2022-08-04T15:07:23;100561.72;;;30.71;39.05
72959;BME280;60008;50.826;6.896;2022-08-04T15:09:51;100561.78;;;30.84;38.80
72959;BME280;60008;50.826;6.896;2022-08-04T15:12:18;100553.38;;;30.62;39.23
72959;BME280;60008;50.826;6.896;2022-08-04T15:14:46;100546.25;;;30.61;39.20
72959;BME280;60008;50.826;6.896;2022-08-04T15:17:13;100548.84;;;30.52;39.82
72959;BME280;60008;50.826;6.896;2022-08-04T15:19:55;100545.63;;;30.50;39.47
72959;BME280;60008;50.826;6.896;2022-08-04T15:22:22;100546.25;;;30.61;39.36
72959;BME280;60008;50.826;6.896;2022-08-04T15:24:49;100548.41;;;30.64;39.30
72959;BME280;60008;50.826;6.896;2022-08-04T15:27:24;100552.25;;;30.63;39.88
72959;BME280;60008;50.826;6.896;2022-08-04T15:29:56;100555.81;;;30.63;39.95
72959;BME280;60008;50.826;6.896;2022-08-04T15:32:32;100550.94;;;30.42;40.36
72959;BME280;60008;50.826;6.896;2022-08-04T15:35:09;100548.03;;;30.33;40.15
72959;BME280;60008;50.826;6.896;2022-08-04T15:45:29;100554.59;;;29.95;40.78
72959;BME280;60008;50.826;6.896;2022-08-04T15:54:19;100561.59;;;29.77;40.94
72959;BME280;60008;50.826;6.896;2022-08-04T15:58:56;100561.94;;;29.47;42.34
72959;BME280;60008;50.826;6.896;2022-08-04T16:01:23;100553.94;;;29.32;43.25
72959;BME280;60008;50.826;6.896;2022-08-04T16:03:51;100575.00;;;29.26;44.51
72959;BME280;60008;50.826;6.896;2022-08-04T16:09:03;100582.13;;;29.22;44.96
72959;BME280;60008;50.826;6.896;2022-08-04T16:19:04;100592.66;;;29.05;44.88
72959;BME280;60008;50.826;6.896;2022-08-04T16:21:46;100595.38;;;29.05;45.67
72959;BME280;60008;50.826;6.896;2022-08-04T16:27:10;100616.81;;;28.88;46.33
72959;BME280;60008;50.826;6.896;2022-08-04T16:29:41;100617.19;;;28.71;47.24
72959;BME280;60008;50.826;6.896;2022-08-04T16:32:13;100630.06;;;28.66;47.37
72959;BME280;60008;50.826;6.896;2022-08-04T16:35:05;100634.88;;;28.79;46.81
72959;BME280;60008;50.826;6.896;2022-08-04T16:37:42;100631.16;;;28.60;48.55
72959;BME280;60008;50.826;6.896;2022-08-04T16:43:04;100624.56;;;28.71;48.38
72959;BME280;60008;50.826;6.896;2022-08-04T16:48:15;100611.41;;;28.83;46.81
72959;BME280;60008;50.826;6.896;2022-08-04T16:50:49;100609.78;;;28.77;48.13
72959;BME280;60008;50.826;6.896;2022-08-04T16:53:17;100600.66;;;28.53;47.54
72959;BME280;60008;50.826;6.896;2022-08-04T16:56:05;100597.88;;;28.58;48.26
72959;BME280;60008;50.826;6.896;2022-08-04T16:58:34;100595.16;;;28.58;48.29
72959;BME280;60008;50.826;6.896;2022-08-04T17:01:07;100594.38;;;28.52;48.27
72959;BME280;60008;50.826;6.896;2022-08-04T17:03:36;100582.03;;;28.65;47.91
72959;BME280;60008;50.826;6.896;2022-08-04T17:06:12;100558.81;;;28.67;47.66
72959;BME280;60008;50.826;6.896;2022-08-04T17:08:41;100541.25;;;28.83;47.64
72959;BME280;60008;50.826;6.896;2022-08-04T17:11:07;100537.28;;;29.00;48.12
72959;BME280;60008;50.826;6.896;2022-08-04T17:13:48;100536.56;;;29.18;48.43
72959;BME280;60008;50.826;6.896;2022-08-04T17:16:32;100533.00;;;29.17;48.28
72959;BME280;60008;50.826;6.896;2022-08-04T17:18:59;100536.47;;;28.99;49.52
72959;BME280;60008;50.826;6.896;2022-08-04T17:21:30;100537.91;;;28.91;49.39
72959;BME280;60008;50.826;6.896;2022-08-04T17:23:58;100538.56;;;28.78;49.63
72959;BME280;60008;50.826;6.896;2022-08-04T17:26:42;100539.34;;;28.45;50.39
72959;BME280;60008;50.826;6.896;2022-08-04T17:29:19;100522.44;;;28.43;50.48
72959;BME280;60008;50.826;6.896;2022-08-04T17:31:46;100522.97;;;28.45;50.63
72959;BME280;60008;50.826;6.896;2022-08-04T17:34:14;100517.22;;;28.47;49.68
72959;BME280;60008;50.826;6.896;2022-08-04T17:36:45;100521.56;;;28.53;50.71
72959;BME280;60008;50.826;6.896;2022-08-04T17:39:14;100520.81;;;28.42;50.92
72959;BME280;60008;50.826;6.896;2022-08-04T17:41:43;100522.19;;;28.40;50.59
72959;BME280;60008;50.826;6.896;2022-08-04T17:44:15;100523.59;;;28.32;50.82
72959;BME280;60008;50.826;6.896;2022-08-04T17:46:44;100521.47;;;28.24;50.79
72959;BME280;60008;50.826;6.896;2022-08-04T17:54:34;100518.22;;;28.22;50.28
72959;BME280;60008;50.826;6.896;2022-08-04T17:57:18;100529.13;;;28.22;51.56
72959;BME280;60008;50.826;6.896;2022-08-04T17:59:52;100526.13;;;28.18;51.00
72959;BME280;60008;50.826;6.896;2022-08-04T18:02:28;100536.53;;;28.11;51.61
72959;BME280;60008;50.826;6.896;2022-08-04T18:05:00;100535.19;;;28.09;51.33
72959;BME280;60008;50.826;6.896;2022-08-04T18:07:46;100537.38;;;28.12;52.28
72959;BME280;60008;50.826;6.896;2022-08-04T18:10:42;100544.81;;;27.86;52.30
72959;BME280;60008;50.826;6.896;2022-08-04T18:13:25;100545.66;;;27.82;51.53